ADDS METAR Data INFO
IDs: Format: Raw Decoded Include TAF

Data at: 0439 UTC 24 Apr 2018

KGOP 240435Z AUTO 00000KT 10SM CLR 16/10 A3005 RMK AO2
KGOP 240415Z AUTO 00000KT 10SM CLR 16/10 A3006 RMK AO2
KGOP 240355Z AUTO 00000KT 10SM CLR 17/10 A3006 RMK AO2
KGOP 240335Z AUTO 00000KT 10SM CLR 17/10 A3007 RMK AO2
KGOP 240315Z AUTO 00000KT 10SM CLR 18/10 A3006 RMK AO2
KGOP 240255Z AUTO 00000KT 10SM CLR 19/09 A3006 RMK AO2
KGOP 240235Z AUTO 00000KT 10SM CLR 19/09 A3005 RMK AO2
KGOP 240215Z AUTO 00000KT 10SM CLR 19/10 A3004 RMK AO2
KGOP 240155Z AUTO 00000KT 10SM CLR 21/09 A3003 RMK AO2
KGOP 240135Z AUTO 00000KT 10SM CLR 22/09 A3003 RMK AO2
KGOP 240115Z AUTO 00000KT 10SM CLR 23/09 A3002 RMK AO2
KGOP 240055Z AUTO 00000KT 10SM CLR 24/09 A3002 RMK AO2
KGOP 240035Z AUTO 36003KT 10SM CLR 25/09 A3001 RMK AO2
KGOP 240015Z AUTO 36005KT 10SM CLR 25/08 A3001 RMK AO2
KGOP 232355Z AUTO 35005KT 10SM CLR 26/08 A3001 RMK AO2
KGOP 232335Z AUTO 34008KT 10SM CLR 26/08 A3000 RMK AO2
KGOP 232315Z AUTO 36007KT 320V020 10SM CLR 26/08 A3000 RMK AO2
KGOP 232255Z AUTO 34007KT 310V020 10SM CLR 26/08 A3001 RMK AO2
KGOP 232235Z AUTO 34007G12KT 10SM CLR 26/08 A3001 RMK AO2
KGOP 232215Z AUTO 33007G14KT 10SM CLR 26/08 A3002 RMK AO2
KGOP 232155Z AUTO 30007G13KT 10SM CLR 26/08 A3002 RMK AO2
KGOP 232135Z AUTO 35008KT 10SM CLR 26/08 A3003 RMK AO2
KGOP 232115Z AUTO VRB05G12KT 10SM CLR 26/08 A3004 RMK AO2
KGOP 232055Z AUTO 31007G16KT 10SM CLR 26/08 A3004 RMK AO2
KGOP 232035Z AUTO 34011G18KT 10SM CLR 25/08 A3005 RMK AO2
KGOP 232015Z AUTO 33007G13KT 300V360 10SM CLR 26/08 A3007 RMK AO2
KGOP 231955Z AUTO 00000G16KT 10SM CLR 25/08 A3007 RMK AO2
KGOP 231935Z AUTO 33010G16KT 10SM CLR 25/08 A3008 RMK AO2
KGOP 231915Z AUTO 32009KT 10SM CLR 24/07 A3009 RMK AO2
KGOP 231855Z AUTO 33011G16KT 10SM CLR 24/07 A3010 RMK AO2
KGOP 231835Z AUTO 35012KT 10SM CLR 24/08 A3010 RMK AO2
KGOP 231815Z AUTO 34010KT 300V360 10SM CLR 23/08 A3011 RMK AO2
KGOP 231755Z AUTO 34011G18KT 10SM CLR 23/08 A3012 RMK AO2
KGOP 231735Z AUTO 32007G18KT 300V010 10SM CLR 23/08 A3013 RMK AO2
KGOP 231715Z AUTO 32013KT 10SM CLR 22/08 A3014 RMK AO2
KGOP 231655Z AUTO 31013G18KT 10SM CLR 21/08 A3014 RMK AO2
KGOP 231635Z AUTO 33010G17KT 10SM CLR 21/08 A3014 RMK AO2
KGOP 231615Z AUTO 35011G17KT 10SM CLR 20/08 A3015 RMK AO2
KGOP 231550Z AUTO 33008KT 10SM CLR 19/09 A3016 RMK AO2
KGOP 231535Z AUTO 33009G14KT 10SM CLR 19/09 A3016 RMK AO2
KGOP 231515Z AUTO 31008KT 10SM CLR 18/09 A3016 RMK AO2
KGOP 231455Z AUTO 31006KT 10SM CLR 18/09 A3016 RMK AO2
KGOP 231435Z AUTO 32007KT 10SM CLR 16/08 A3016 RMK AO2
KGOP 231415Z AUTO 33007KT 10SM CLR 16/08 A3016 RMK AO2
KGOP 231355Z AUTO 30006G13KT 10SM CLR 15/08 A3017 RMK AO2
KGOP 231335Z AUTO 00000KT 10SM CLR 12/08 A3017 RMK AO2
KGOP 231315Z AUTO 00000KT 10SM CLR 11/07 A3016 RMK AO2
KGOP 231255Z AUTO 00000KT 10SM CLR 10/07 A3016 RMK AO2
KGOP 231235Z AUTO 00000KT 10SM CLR 09/06 A3014 RMK AO2
KGOP 231215Z AUTO 00000KT 10SM CLR 08/05 A3013 RMK AO2
KGOP 231155Z AUTO 24003KT 10SM CLR 08/05 A3012 RMK AO2
KGOP 231135Z AUTO 26003KT 10SM CLR 07/05 A3011 RMK AO2
KGOP 231115Z AUTO 00000KT 10SM CLR 08/05 A3010 RMK AO2
KGOP 231055Z AUTO 00000KT 10SM CLR 08/05 A3009 RMK AO2
KGOP 231035Z AUTO 00000KT 10SM CLR 08/06 A3008 RMK AO2
KGOP 231015Z AUTO 24004KT 10SM CLR 08/05 A3008 RMK AO2
KGOP 230955Z AUTO 00000KT 10SM CLR 08/05 A3008 RMK AO2
KGOP 230935Z AUTO 23005KT 10SM CLR 08/05 A3008 RMK AO2
KGOP 230915Z AUTO 00000KT 10SM CLR 08/06 A3007 RMK AO2
KGOP 230855Z AUTO 25004KT 10SM CLR 08/05 A3007 RMK AO2
KGOP 230835Z AUTO 00000KT 10SM CLR 09/06 A3007 RMK AO2
KGOP 230815Z AUTO 23006KT 10SM CLR 09/06 A3007 RMK AO2
KGOP 230755Z AUTO 36005KT 10SM CLR 09/06 A3006 RMK AO2
KGOP 230735Z AUTO 26003KT 10SM CLR 09/06 A3007 RMK AO2
KGOP 230715Z AUTO 00000KT 10SM CLR 10/06 A3007 RMK AO2
KGOP 230655Z AUTO 00000KT 10SM CLR 10/06 A3008 RMK AO2
KGOP 230635Z AUTO 36003KT 10SM CLR 10/06 A3008 RMK AO2
KGOP 230615Z AUTO 00000KT 10SM CLR 10/06 A3009 RMK AO2
KGOP 230555Z AUTO 00000KT 10SM CLR 11/06 A3009 RMK AO2
KGOP 230535Z AUTO 00000KT 10SM CLR 09/06 A3009 RMK AO2
KGOP 230515Z AUTO 00000KT 10SM CLR 10/06 A3009 RMK AO2
KGOP 230455Z AUTO 00000KT 10SM CLR 10/06 A3009 RMK AO2
KGOP 230435Z AUTO 00000KT 10SM CLR 10/06 A3009 RMK AO2
KGOP 230415Z AUTO 00000KT 10SM CLR 11/07 A3009 RMK AO2
KGOP 230355Z AUTO 00000KT 10SM CLR 12/07 A3009 RMK AO2
KGOP 230335Z AUTO 00000KT 10SM CLR 12/07 A3009 RMK AO2
KGOP 230315Z AUTO 00000KT 10SM CLR 12/07 A3009 RMK AO2
KGOP 230255Z AUTO 00000KT 10SM CLR 14/07 A3009 RMK AO2
KGOP 230235Z AUTO 00000KT 10SM CLR 16/06 A3008 RMK AO2
KGOP 230215Z AUTO 00000KT 10SM CLR 16/07 A3008 RMK AO2
KGOP 230155Z AUTO 00000KT 10SM CLR 16/07 A3007 RMK AO2
KGOP 230135Z AUTO 00000KT 10SM CLR 18/06 A3006 RMK AO2
KGOP 230115Z AUTO 00000KT 10SM CLR 18/06 A3005 RMK AO2
KGOP 230055Z AUTO 01004KT 10SM CLR 19/06 A3005 RMK AO2
KGOP 230035Z AUTO 35004KT 10SM CLR 20/06 A3005 RMK AO2
KGOP 230015Z AUTO 36007KT 10SM CLR 21/05 A3004 RMK AO2
KGOP 222355Z AUTO 35010KT 10SM CLR 21/05 A3004 RMK AO2
KGOP 222335Z AUTO 35010G15KT 10SM CLR 21/05 A3004 RMK AO2
KGOP 222315Z AUTO 34011KT 10SM CLR 22/05 A3004 RMK AO2
KGOP 222255Z AUTO 35011KT 10SM CLR 22/06 A3004 RMK AO2
KGOP 222235Z AUTO 35011G16KT 10SM CLR 22/06 A3005 RMK AO2
KGOP 222215Z AUTO 32008G16KT 10SM CLR 21/06 A3005 RMK AO2
KGOP 222155Z AUTO 34008G13KT 10SM CLR 21/06 A3004 RMK AO2
KGOP 222135Z AUTO 33011KT 10SM CLR 22/06 A3005 RMK AO2
KGOP 222115Z AUTO 33012G17KT 10SM CLR 22/06 A3006 RMK AO2
KGOP 222055Z AUTO 32010KT 10SM CLR 22/06 A3007 RMK AO2
KGOP 222035Z AUTO 31009G16KT 10SM CLR 21/06 A3007 RMK AO2
KGOP 222015Z AUTO 34012G19KT 300V360 10SM CLR 20/06 A3008 RMK AO2
KGOP 221955Z AUTO 34014KT 10SM CLR 21/06 A3009 RMK AO2
KGOP 221935Z AUTO 33011KT 300V020 10SM CLR 20/06 A3010 RMK AO2
KGOP 221915Z AUTO VRB06G15KT 310V020 10SM CLR 20/07 A3010 RMK AO2
KGOP 221855Z AUTO 33011G17KT 10SM CLR 19/06 A3011 RMK AO2
KGOP 221835Z AUTO 32010G19KT 10SM FEW044 FEW085 FEW120 19/07 A3012 RMK AO2
KGOP 221815Z AUTO 32013G18KT 10SM FEW043 FEW120 19/07 A3013 RMK AO2
KGOP 221755Z AUTO 29009G15KT 10SM SCT042 SCT080 18/07 A3013 RMK AO2
KGOP 221735Z AUTO 33012G18KT 10SM SCT041 BKN090 17/06 A3014 RMK AO2
KGOP 221715Z AUTO 32009G15KT 10SM SCT038 SCT045 SCT090 17/07 A3015 RMK AO2
KGOP 221655Z AUTO 34012KT 10SM SCT034 SCT049 SCT085 17/07 A3015 RMK AO2